Arctic Titan — WDG2803 — position and weather

sailwx.info

Track history (hours):
 
Tides and Currents Weather Stations Pressure Air Temp Water Temp Dewpoint Dewpoint Depression Visibility Wind Speed Wind Dir Waves Ship Positions

Arctic Titan

Owner: Western Towboat Co., Seattle, WA. More information available from US FCC via Universal Licensing System and Coast Guard Vessel Documentation Center.

Last reported at 2018-Jul-17 01:51 UTC. Time now 2018-Jul-17 07:36 UTC.
Position N 47°39' W 122°22'.

Length 38 m; draft 5.5 m.

Type: Tow > 200 m length. MMSI: 367519450.

Date/timePositionNaut miles runAvg speedWind from/ knotsBaromVisibWave heightAir tempDewpointWater temp
2018-Jul-17 01:51N 47°39' W 122°22'1 4.4
2018-Jul-17 01:30N 47°40' W 122°24'2 3.5
2018-Jul-17 01:00N 47°40' W 122°26'5 9.1
2018-Jul-17 00:30N 47°36' W 122°22'0 0.5
2018-Jul-16 23:29N 47°36' W 122°22'4 9.5
2018-Jul-16 23:00N 47°39' W 122°28'510.2
2018-Jul-16 22:30N 47°44' W 122°27'510.1
2018-Jul-16 22:00N 47°49' W 122°28'510.3
2018-Jul-16 21:30N 47°54' W 122°30'27 7.2
2018-Jul-16 17:47N 48°17' W 122°48'411.5
2018-Jul-16 17:25N 48°21' W 122°46'512.5
2018-Jul-16 16:59N 48°27' W 122°45'612.7
2018-Jul-16 16:30N 48°33' W 122°45'611.5
2018-Jul-16 16:00N 48°39' W 122°44'1710.6
2018-Jul-16 14:24N 48°51' W 123°02'610.8
2018-Jul-16 13:48N 48°55' W 123°09'310.6
2018-Jul-16 13:30N 48°57' W 123°13'5 9.7
2018-Jul-16 12:59N 49°00' W 123°19'3811.1
2018-Jul-16 09:34N 49°22' W 124°06'111.3
2018-Jul-16 09:27N 49°22' W 124°08'611.5
2018-Jul-16 08:58N 49°25' W 124°16'611.1
2018-Jul-16 08:28N 49°27' W 124°24'510.9
2018-Jul-16 07:59N 49°30' W 124°30'510.6
2018-Jul-16 07:28N 49°34' W 124°36'510.7
2018-Jul-16 07:00N 49°38' W 124°41'510.6
2018-Jul-16 06:30N 49°42' W 124°47'510.4
2018-Jul-16 06:00N 49°46' W 124°51'510.1
2018-Jul-16 05:30N 49°49' W 124°57'510.5
2018-Jul-16 05:00N 49°53' W 125°03'510.7
2018-Jul-16 04:30N 49°57' W 125°09'5 9.1
2018-Jul-16 04:00N 50°01' W 125°13'5 9.4
2018-Jul-16 03:30N 50°05' W 125°16'510.1
2018-Jul-16 03:00N 50°09' W 125°21'510.3
2018-Jul-16 02:30N 50°14' W 125°23'3 4.9
2018-Jul-16 01:57N 50°16' W 125°24'0 0.9
2018-Jul-16 01:29N 50°16' W 125°23'4 7.8
2018-Jul-16 01:00N 50°20' W 125°25'1310.2
2018-Jul-15 23:43N 50°22' W 125°46'18 9.2
2018-Jul-15 21:48N 50°29' W 126°12'2 5.6
2018-Jul-15 21:27N 50°29' W 126°15'2 5.0
2018-Jul-15 20:58N 50°29' W 126°18'4 6.9
2018-Jul-15 20:25N 50°30' W 126°24'3 6.6
2018-Jul-15 19:56N 50°30' W 126°29'6 7.6
2018-Jul-15 19:13N 50°31' W 126°38'3 8.5
2018-Jul-15 18:54N 50°32' W 126°41'3 7.6
2018-Jul-15 18:26N 50°35' W 126°43'5 9.2
2018-Jul-15 17:51N 50°39' W 126°49'9 9.8
2018-Jul-15 16:58N 50°43' W 127°01'4 9.4
2018-Jul-15 16:30N 50°45' W 127°08'5 9.7
2018-Jul-15 16:00N 50°48' W 127°13'5 9.6
2018-Jul-15 15:30N 50°52' W 127°19'4 9.0
2018-Jul-15 15:00N 50°55' W 127°24'4 7.5
2018-Jul-15 14:30N 50°57' W 127°28'4 8.4
2018-Jul-15 14:00N 50°59' W 127°34'4 8.3
2018-Jul-15 13:30N 51°02' W 127°38'5 9.2
2018-Jul-15 13:00N 51°05' W 127°44'5 9.4
2018-Jul-15 12:30N 51°08' W 127°50'510.4
2018-Jul-15 12:00N 51°13' W 127°52'510.2
2018-Jul-15 11:30N 51°18' W 127°54'510.2
2018-Jul-15 11:00N 51°22' W 127°58'510.2
2018-Jul-15 10:30N 51°25' W 128°05'510.4
2018-Jul-15 10:00N 51°28' W 128°12'510.4
2018-Jul-15 09:30N 51°32' W 128°17'510.7
2018-Jul-15 09:00N 51°37' W 128°22'510.6
2018-Jul-15 08:30N 51°41' W 128°26'510.6
2018-Jul-15 08:00N 51°46' W 128°30'510.5
2018-Jul-15 07:30N 51°50' W 128°34'510.4
2018-Jul-15 07:00N 51°55' W 128°37'510.4
2018-Jul-15 06:31N 51°60' W 128°40'510.4
2018-Jul-15 06:01N 52°05' W 128°44'510.6
2018-Jul-15 05:30N 52°10' W 128°47'510.2
2018-Jul-15 05:00N 52°15' W 128°48'510.0
2018-Jul-15 04:30N 52°20' W 128°49'5 9.9
2018-Jul-15 04:00N 52°25' W 128°50'510.2
2018-Jul-15 03:30N 52°30' W 128°52'610.8
2018-Jul-15 02:58N 52°35' W 128°53'511.1
2018-Jul-15 02:30N 52°40' W 128°57'612.1
2018-Jul-15 01:59N 52°44' W 129°05'2510.8
2018-Jul-14 23:39N 53°03' W 129°32'211.7
2018-Jul-14 23:30N 53°05' W 129°34'2410.5
2018-Jul-14 21:14N 53°25' W 129°55'10 8.3
2018-Jul-14 20:06N 53°31' W 130°06'1 9.3
2018-Jul-14 19:56N 53°32' W 130°08'11 9.7
2018-Jul-14 18:46N 53°38' W 130°25'410.3
2018-Jul-14 18:22N 53°41' W 130°30'410.1
2018-Jul-14 18:00N 53°43' W 130°35'610.3
2018-Jul-14 17:27N 53°46' W 130°43'410.1
2018-Jul-14 17:00N 53°49' W 130°49'510.5
2018-Jul-14 16:30N 53°52' W 130°56'611.1
2018-Jul-14 16:00N 53°57' W 131°01'611.3
2018-Jul-14 15:31N 54°03' W 131°02'611.0
2018-Jul-14 15:00N 54°08' W 131°02'510.8
2018-Jul-14 14:30N 54°14' W 131°02'9 9.4
2018-Jul-14 13:30N 54°22' W 131°10'4 8.7
2018-Jul-14 13:01N 54°24' W 131°16'1310.0
2018-Jul-14 11:40N 54°27' W 131°39'255 9.0
2018-Jul-13 07:10N 58°11' W 135°20'310.4
2018-Jul-13 06:54N 58°12' W 135°24'410.3
2018-Jul-13 06:29N 58°15' W 135°31'510.6
2018-Jul-13 06:00N 58°17' W 135°40'611.4
2018-Jul-13 05:30N 58°18' W 135°51'612.0
2018-Jul-13 05:00N 58°16' W 136°01'6 9.9
2018-Jul-13 04:24N 58°16' W 136°13'93 8.9
2018-Jul-12 18:00N 58°36' W 139°06'6210.3 320 / 51024.0 5.4 17.0 13.0
2018-Jul-12 12:00N 58°54' W 141°00'55 9.2 120 / 31020.627.0 13.7
2018-Jul-12 06:00N 59°12' W 142°42'57 9.5 250 / 151020.0 14.0 13.0
2018-Jul-12 00:00N 59°36' W 144°24'46 7.7 170 / 101015.927.0 13.0
2018-Jul-11 18:00N 59°54' W 145°48'   180 / 201016.0 2.2 15.0 12.0
Track history (hours):
 
Tides and Currents Weather Stations Pressure Air Temp Water Temp Dewpoint Dewpoint Depression Visibility Wind Speed Wind Dir Waves Ship Positions

Arctic Titan

Owner: Western Towboat Co., Seattle, WA. More information available from US FCC via Universal Licensing System and Coast Guard Vessel Documentation Center.

Last reported at 2018-Jul-17 01:51 UTC. Time now 2018-Jul-17 07:36 UTC.
Position N 47°39' W 122°22'.

Length 38 m; draft 5.5 m.

Type: Tow > 200 m length. MMSI: 367519450.

Date/timePositionNaut miles runAvg speedWind from/ knotsBaromVisibWave heightAir tempDewpointWater temp
2018-Jul-17 01:51N 47°39' W 122°22'1 4.4
2018-Jul-17 01:30N 47°40' W 122°24'2 3.5
2018-Jul-17 01:00N 47°40' W 122°26'5 9.1
2018-Jul-17 00:30N 47°36' W 122°22'0 0.5
2018-Jul-16 23:29N 47°36' W 122°22'4 9.5
2018-Jul-16 23:00N 47°39' W 122°28'510.2
2018-Jul-16 22:30N 47°44' W 122°27'510.1
2018-Jul-16 22:00N 47°49' W 122°28'510.3
2018-Jul-16 21:30N 47°54' W 122°30'27 7.2
2018-Jul-16 17:47N 48°17' W 122°48'411.5
2018-Jul-16 17:25N 48°21' W 122°46'512.5
2018-Jul-16 16:59N 48°27' W 122°45'612.7
2018-Jul-16 16:30N 48°33' W 122°45'611.5
2018-Jul-16 16:00N 48°39' W 122°44'1710.6
2018-Jul-16 14:24N 48°51' W 123°02'610.8
2018-Jul-16 13:48N 48°55' W 123°09'310.6
2018-Jul-16 13:30N 48°57' W 123°13'5 9.7
2018-Jul-16 12:59N 49°00' W 123°19'3811.1
2018-Jul-16 09:34N 49°22' W 124°06'111.3
2018-Jul-16 09:27N 49°22' W 124°08'611.5
2018-Jul-16 08:58N 49°25' W 124°16'611.1
2018-Jul-16 08:28N 49°27' W 124°24'510.9
2018-Jul-16 07:59N 49°30' W 124°30'510.6
2018-Jul-16 07:28N 49°34' W 124°36'510.7
2018-Jul-16 07:00N 49°38' W 124°41'510.6
2018-Jul-16 06:30N 49°42' W 124°47'510.4
2018-Jul-16 06:00N 49°46' W 124°51'510.1
2018-Jul-16 05:30N 49°49' W 124°57'510.5
2018-Jul-16 05:00N 49°53' W 125°03'510.7
2018-Jul-16 04:30N 49°57' W 125°09'5 9.1
2018-Jul-16 04:00N 50°01' W 125°13'5 9.4
2018-Jul-16 03:30N 50°05' W 125°16'510.1
2018-Jul-16 03:00N 50°09' W 125°21'510.3
2018-Jul-16 02:30N 50°14' W 125°23'3 4.9
2018-Jul-16 01:57N 50°16' W 125°24'0 0.9
2018-Jul-16 01:29N 50°16' W 125°23'4 7.8
2018-Jul-16 01:00N 50°20' W 125°25'1310.2
2018-Jul-15 23:43N 50°22' W 125°46'18 9.2
2018-Jul-15 21:48N 50°29' W 126°12'2 5.6
2018-Jul-15 21:27N 50°29' W 126°15'2 5.0
2018-Jul-15 20:58N 50°29' W 126°18'4 6.9
2018-Jul-15 20:25N 50°30' W 126°24'3 6.6
2018-Jul-15 19:56N 50°30' W 126°29'6 7.6
2018-Jul-15 19:13N 50°31' W 126°38'3 8.5
2018-Jul-15 18:54N 50°32' W 126°41'3 7.6
2018-Jul-15 18:26N 50°35' W 126°43'5 9.2
2018-Jul-15 17:51N 50°39' W 126°49'9 9.8
2018-Jul-15 16:58N 50°43' W 127°01'4 9.4
2018-Jul-15 16:30N 50°45' W 127°08'5 9.7
2018-Jul-15 16:00N 50°48' W 127°13'5 9.6
2018-Jul-15 15:30N 50°52' W 127°19'4 9.0
2018-Jul-15 15:00N 50°55' W 127°24'4 7.5
2018-Jul-15 14:30N 50°57' W 127°28'4 8.4
2018-Jul-15 14:00N 50°59' W 127°34'4 8.3
2018-Jul-15 13:30N 51°02' W 127°38'5 9.2
2018-Jul-15 13:00N 51°05' W 127°44'5 9.4
2018-Jul-15 12:30N 51°08' W 127°50'510.4
2018-Jul-15 12:00N 51°13' W 127°52'510.2
2018-Jul-15 11:30N 51°18' W 127°54'510.2
2018-Jul-15 11:00N 51°22' W 127°58'510.2
2018-Jul-15 10:30N 51°25' W 128°05'510.4
2018-Jul-15 10:00N 51°28' W 128°12'510.4
2018-Jul-15 09:30N 51°32' W 128°17'510.7
2018-Jul-15 09:00N 51°37' W 128°22'510.6
2018-Jul-15 08:30N 51°41' W 128°26'510.6
2018-Jul-15 08:00N 51°46' W 128°30'510.5
2018-Jul-15 07:30N 51°50' W 128°34'510.4
2018-Jul-15 07:00N 51°55' W 128°37'510.4
2018-Jul-15 06:31N 51°60' W 128°40'510.4
2018-Jul-15 06:01N 52°05' W 128°44'510.6
2018-Jul-15 05:30N 52°10' W 128°47'510.2
2018-Jul-15 05:00N 52°15' W 128°48'510.0
2018-Jul-15 04:30N 52°20' W 128°49'5 9.9
2018-Jul-15 04:00N 52°25' W 128°50'510.2
2018-Jul-15 03:30N 52°30' W 128°52'610.8
2018-Jul-15 02:58N 52°35' W 128°53'511.1
2018-Jul-15 02:30N 52°40' W 128°57'612.1
2018-Jul-15 01:59N 52°44' W 129°05'2510.8
2018-Jul-14 23:39N 53°03' W 129°32'211.7
2018-Jul-14 23:30N 53°05' W 129°34'2410.5
2018-Jul-14 21:14N 53°25' W 129°55'10 8.3
2018-Jul-14 20:06N 53°31' W 130°06'1 9.3
2018-Jul-14 19:56N 53°32' W 130°08'11 9.7
2018-Jul-14 18:46N 53°38' W 130°25'410.3
2018-Jul-14 18:22N 53°41' W 130°30'410.1
2018-Jul-14 18:00N 53°43' W 130°35'610.3
2018-Jul-14 17:27N 53°46' W 130°43'410.1
2018-Jul-14 17:00N 53°49' W 130°49'510.5
2018-Jul-14 16:30N 53°52' W 130°56'611.1
2018-Jul-14 16:00N 53°57' W 131°01'611.3
2018-Jul-14 15:31N 54°03' W 131°02'611.0
2018-Jul-14 15:00N 54°08' W 131°02'510.8
2018-Jul-14 14:30N 54°14' W 131°02'9 9.4
2018-Jul-14 13:30N 54°22' W 131°10'4 8.7
2018-Jul-14 13:01N 54°24' W 131°16'1310.0
2018-Jul-14 11:40N 54°27' W 131°39'255 9.0
2018-Jul-13 07:10N 58°11' W 135°20'310.4
2018-Jul-13 06:54N 58°12' W 135°24'410.3
2018-Jul-13 06:29N 58°15' W 135°31'510.6
2018-Jul-13 06:00N 58°17' W 135°40'611.4
2018-Jul-13 05:30N 58°18' W 135°51'612.0
2018-Jul-13 05:00N 58°16' W 136°01'6 9.9
2018-Jul-13 04:24N 58°16' W 136°13'93 8.9
2018-Jul-12 18:00N 58°36' W 139°06'6210.3 320 / 51024.0 5.4 17.0 13.0
2018-Jul-12 12:00N 58°54' W 141°00'55 9.2 120 / 31020.627.0 13.7
2018-Jul-12 06:00N 59°12' W 142°42'57 9.5 250 / 151020.0 14.0 13.0
2018-Jul-12 00:00N 59°36' W 144°24'46 7.7 170 / 101015.927.0 13.0
2018-Jul-11 18:00N 59°54' W 145°48'   180 / 201016.0 2.2 15.0 12.0

Dump ship's entire track history